sensor_id;sensor_type;location;lat;lon;timestamp;P1;durP1;ratioP1;P2;durP2;ratioP2
75191;SDS011;63771;52.580;9.734;2023-07-13T00:02:04;2.65;;;2.45;;
75191;SDS011;63771;52.580;9.734;2023-07-13T00:04:30;2.78;;;2.58;;
75191;SDS011;63771;52.580;9.734;2023-07-13T00:06:55;3.10;;;2.63;;
75191;SDS011;63771;52.580;9.734;2023-07-13T00:09:21;2.85;;;2.65;;
75191;SDS011;63771;52.580;9.734;2023-07-13T00:11:49;2.47;;;2.33;;
75191;SDS011;63771;52.580;9.734;2023-07-13T00:14:16;4.22;;;2.63;;
75191;SDS011;63771;52.580;9.734;2023-07-13T00:16:41;4.10;;;2.20;;
75191;SDS011;63771;52.580;9.734;2023-07-13T00:19:08;2.80;;;2.55;;
75191;SDS011;63771;52.580;9.734;2023-07-13T00:21:34;3.25;;;2.55;;
75191;SDS011;63771;52.580;9.734;2023-07-13T00:23:59;2.58;;;2.20;;
75191;SDS011;63771;52.580;9.734;2023-07-13T00:26:26;3.45;;;3.25;;
75191;SDS011;63771;52.580;9.734;2023-07-13T00:28:51;3.92;;;2.63;;
75191;SDS011;63771;52.580;9.734;2023-07-13T00:31:17;3.92;;;2.50;;
75191;SDS011;63771;52.580;9.734;2023-07-13T00:33:42;3.75;;;2.60;;
75191;SDS011;63771;52.580;9.734;2023-07-13T00:36:08;3.25;;;2.95;;
75191;SDS011;63771;52.580;9.734;2023-07-13T00:38:36;2.80;;;2.60;;
75191;SDS011;63771;52.580;9.734;2023-07-13T00:41:02;2.72;;;2.53;;
75191;SDS011;63771;52.580;9.734;2023-07-13T00:43:29;2.83;;;2.60;;
75191;SDS011;63771;52.580;9.734;2023-07-13T00:48:21;3.03;;;2.57;;
75191;SDS011;63771;52.580;9.734;2023-07-13T00:50:56;2.60;;;2.40;;
75191;SDS011;63771;52.580;9.734;2023-07-13T00:53:26;3.17;;;2.80;;
75191;SDS011;63771;52.580;9.734;2023-07-13T00:55:54;3.45;;;2.70;;
75191;SDS011;63771;52.580;9.734;2023-07-13T00:58:21;4.82;;;2.97;;
75191;SDS011;63771;52.580;9.734;2023-07-13T01:00:47;2.42;;;2.22;;
75191;SDS011;63771;52.580;9.734;2023-07-13T01:03:15;4.40;;;2.80;;
75191;SDS011;63771;52.580;9.734;2023-07-13T01:05:40;4.68;;;3.58;;
75191;SDS011;63771;52.580;9.734;2023-07-13T01:08:06;4.35;;;2.70;;
75191;SDS011;63771;52.580;9.734;2023-07-13T01:10:34;5.97;;;3.15;;
75191;SDS011;63771;52.580;9.734;2023-07-13T01:13:04;4.18;;;2.80;;
75191;SDS011;63771;52.580;9.734;2023-07-13T01:18:21;3.65;;;3.35;;
75191;SDS011;63771;52.580;9.734;2023-07-13T01:20:53;2.65;;;2.55;;
75191;SDS011;63771;52.580;9.734;2023-07-13T01:23:29;2.65;;;2.38;;
75191;SDS011;63771;52.580;9.734;2023-07-13T01:25:56;3.25;;;2.90;;
75191;SDS011;63771;52.580;9.734;2023-07-13T01:28:22;3.50;;;3.15;;
75191;SDS011;63771;52.580;9.734;2023-07-13T01:30:52;3.97;;;2.95;;
75191;SDS011;63771;52.580;9.734;2023-07-13T01:33:18;2.90;;;2.70;;
75191;SDS011;63771;52.580;9.734;2023-07-13T01:35:44;4.95;;;3.33;;
75191;SDS011;63771;52.580;9.734;2023-07-13T01:38:11;5.43;;;3.10;;
75191;SDS011;63771;52.580;9.734;2023-07-13T01:40:39;4.32;;;2.67;;
75191;SDS011;63771;52.580;9.734;2023-07-13T01:43:04;3.63;;;2.72;;
75191;SDS011;63771;52.580;9.734;2023-07-13T01:45:30;3.47;;;3.00;;
75191;SDS011;63771;52.580;9.734;2023-07-13T01:47:56;3.47;;;3.03;;
75191;SDS011;63771;52.580;9.734;2023-07-13T01:50:22;3.65;;;3.30;;
75191;SDS011;63771;52.580;9.734;2023-07-13T01:52:48;3.55;;;3.05;;
75191;SDS011;63771;52.580;9.734;2023-07-13T01:55:13;3.60;;;3.33;;
75191;SDS011;63771;52.580;9.734;2023-07-13T01:57:39;3.20;;;3.00;;
75191;SDS011;63771;52.580;9.734;2023-07-13T02:00:05;6.30;;;3.43;;
75191;SDS011;63771;52.580;9.734;2023-07-13T02:02:32;3.58;;;3.28;;
75191;SDS011;63771;52.580;9.734;2023-07-13T02:04:57;3.28;;;3.08;;
75191;SDS011;63771;52.580;9.734;2023-07-13T02:07:23;3.50;;;3.20;;
75191;SDS011;63771;52.580;9.734;2023-07-13T02:09:48;3.08;;;2.90;;
75191;SDS011;63771;52.580;9.734;2023-07-13T02:12:13;3.27;;;2.97;;
75191;SDS011;63771;52.580;9.734;2023-07-13T02:14:39;4.32;;;3.35;;
75191;SDS011;63771;52.580;9.734;2023-07-13T02:17:05;5.28;;;2.80;;
75191;SDS011;63771;52.580;9.734;2023-07-13T02:19:31;3.30;;;3.05;;
75191;SDS011;63771;52.580;9.734;2023-07-13T02:21:56;5.10;;;3.05;;
75191;SDS011;63771;52.580;9.734;2023-07-13T02:24:21;3.85;;;3.40;;
75191;SDS011;63771;52.580;9.734;2023-07-13T02:26:47;4.00;;;2.77;;
75191;SDS011;63771;52.580;9.734;2023-07-13T02:29:13;4.78;;;3.15;;
75191;SDS011;63771;52.580;9.734;2023-07-13T02:31:38;5.03;;;3.30;;
75191;SDS011;63771;52.580;9.734;2023-07-13T02:34:03;4.97;;;3.50;;
75191;SDS011;63771;52.580;9.734;2023-07-13T02:36:29;5.53;;;3.85;;
75191;SDS011;63771;52.580;9.734;2023-07-13T02:38:57;4.80;;;3.53;;
75191;SDS011;63771;52.580;9.734;2023-07-13T02:41:26;3.50;;;3.20;;
75191;SDS011;63771;52.580;9.734;2023-07-13T02:43:52;3.85;;;3.38;;
75191;SDS011;63771;52.580;9.734;2023-07-13T02:46:17;4.00;;;3.45;;
75191;SDS011;63771;52.580;9.734;2023-07-13T02:48:44;3.30;;;3.10;;
75191;SDS011;63771;52.580;9.734;2023-07-13T02:51:10;3.85;;;3.28;;
75191;SDS011;63771;52.580;9.734;2023-07-13T02:53:36;3.85;;;3.08;;
75191;SDS011;63771;52.580;9.734;2023-07-13T02:56:02;5.55;;;3.55;;
75191;SDS011;63771;52.580;9.734;2023-07-13T02:58:28;3.50;;;3.20;;
75191;SDS011;63771;52.580;9.734;2023-07-13T03:00:55;5.53;;;3.03;;
75191;SDS011;63771;52.580;9.734;2023-07-13T03:03:21;3.90;;;3.60;;
75191;SDS011;63771;52.580;9.734;2023-07-13T03:05:46;3.67;;;3.35;;
75191;SDS011;63771;52.580;9.734;2023-07-13T03:08:15;6.03;;;3.45;;
75191;SDS011;63771;52.580;9.734;2023-07-13T03:10:41;11.63;;;3.45;;
75191;SDS011;63771;52.580;9.734;2023-07-13T03:13:06;3.60;;;3.30;;
75191;SDS011;63771;52.580;9.734;2023-07-13T03:15:31;5.38;;;2.90;;
75191;SDS011;63771;52.580;9.734;2023-07-13T03:17:57;3.00;;;2.80;;
75191;SDS011;63771;52.580;9.734;2023-07-13T03:20:22;3.90;;;3.30;;
75191;SDS011;63771;52.580;9.734;2023-07-13T03:22:48;3.23;;;3.00;;
75191;SDS011;63771;52.580;9.734;2023-07-13T03:25:13;5.88;;;2.83;;
75191;SDS011;63771;52.580;9.734;2023-07-13T03:27:38;3.75;;;3.42;;
75191;SDS011;63771;52.580;9.734;2023-07-13T03:30:04;3.67;;;3.38;;
75191;SDS011;63771;52.580;9.734;2023-07-13T03:32:30;3.17;;;2.95;;
75191;SDS011;63771;52.580;9.734;2023-07-13T03:34:55;3.30;;;3.00;;
75191;SDS011;63771;52.580;9.734;2023-07-13T03:37:21;4.07;;;3.20;;
75191;SDS011;63771;52.580;9.734;2023-07-13T03:39:46;3.80;;;3.45;;
75191;SDS011;63771;52.580;9.734;2023-07-13T03:42:12;4.45;;;2.70;;
75191;SDS011;63771;52.580;9.734;2023-07-13T03:44:38;3.03;;;2.70;;
75191;SDS011;63771;52.580;9.734;2023-07-13T03:47:06;4.75;;;3.33;;
75191;SDS011;63771;52.580;9.734;2023-07-13T03:49:33;3.58;;;2.80;;
75191;SDS011;63771;52.580;9.734;2023-07-13T03:51:59;4.30;;;3.10;;
75191;SDS011;63771;52.580;9.734;2023-07-13T03:54:24;3.90;;;3.03;;
75191;SDS011;63771;52.580;9.734;2023-07-13T03:56:49;2.83;;;2.58;;
75191;SDS011;63771;52.580;9.734;2023-07-13T03:59:15;3.03;;;2.67;;
75191;SDS011;63771;52.580;9.734;2023-07-13T04:01:40;2.28;;;2.08;;
75191;SDS011;63771;52.580;9.734;2023-07-13T04:04:05;4.30;;;2.03;;
75191;SDS011;63771;52.580;9.734;2023-07-13T04:06:31;4.00;;;2.13;;
75191;SDS011;63771;52.580;9.734;2023-07-13T04:08:58;5.30;;;2.20;;
75191;SDS011;63771;52.580;9.734;2023-07-13T04:11:29;3.92;;;1.80;;
75191;SDS011;63771;52.580;9.734;2023-07-13T04:13:56;4.85;;;1.92;;
75191;SDS011;63771;52.580;9.734;2023-07-13T04:16:21;4.22;;;2.20;;
75191;SDS011;63771;52.580;9.734;2023-07-13T04:18:47;6.45;;;2.20;;
75191;SDS011;63771;52.580;9.734;2023-07-13T04:21:13;7.68;;;2.47;;
75191;SDS011;63771;52.580;9.734;2023-07-13T04:23:40;3.47;;;2.00;;
75191;SDS011;63771;52.580;9.734;2023-07-13T04:26:06;4.28;;;2.15;;
75191;SDS011;63771;52.580;9.734;2023-07-13T04:28:33;3.60;;;2.08;;
75191;SDS011;63771;52.580;9.734;2023-07-13T04:30:59;7.05;;;1.85;;
75191;SDS011;63771;52.580;9.734;2023-07-13T04:33:25;2.58;;;2.38;;
75191;SDS011;63771;52.580;9.734;2023-07-13T04:35:52;6.25;;;2.22;;
75191;SDS011;63771;52.580;9.734;2023-07-13T04:38:23;4.25;;;2.42;;
75191;SDS011;63771;52.580;9.734;2023-07-13T04:40:49;8.85;;;2.58;;
75191;SDS011;63771;52.580;9.734;2023-07-13T04:43:16;5.75;;;2.00;;
75191;SDS011;63771;52.580;9.734;2023-07-13T04:45:41;3.08;;;1.73;;
75191;SDS011;63771;52.580;9.734;2023-07-13T04:48:06;6.73;;;2.00;;
75191;SDS011;63771;52.580;9.734;2023-07-13T04:50:31;4.80;;;1.87;;
75191;SDS011;63771;52.580;9.734;2023-07-13T04:52:57;3.10;;;1.70;;
75191;SDS011;63771;52.580;9.734;2023-07-13T04:55:23;4.38;;;2.35;;
75191;SDS011;63771;52.580;9.734;2023-07-13T04:57:48;4.77;;;2.90;;
75191;SDS011;63771;52.580;9.734;2023-07-13T05:00:14;4.57;;;2.05;;
75191;SDS011;63771;52.580;9.734;2023-07-13T05:02:41;5.22;;;2.30;;
75191;SDS011;63771;52.580;9.734;2023-07-13T05:05:09;2.97;;;2.75;;
75191;SDS011;63771;52.580;9.734;2023-07-13T05:07:34;3.17;;;1.90;;
75191;SDS011;63771;52.580;9.734;2023-07-13T05:09:59;7.63;;;2.17;;
75191;SDS011;63771;52.580;9.734;2023-07-13T05:12:25;2.72;;;2.45;;
75191;SDS011;63771;52.580;9.734;2023-07-13T05:14:50;3.72;;;2.17;;
75191;SDS011;63771;52.580;9.734;2023-07-13T05:17:16;3.17;;;2.80;;
75191;SDS011;63771;52.580;9.734;2023-07-13T05:19:41;6.40;;;2.47;;
75191;SDS011;63771;52.580;9.734;2023-07-13T05:22:06;5.72;;;1.90;;
75191;SDS011;63771;52.580;9.734;2023-07-13T05:24:32;3.83;;;1.93;;
75191;SDS011;63771;52.580;9.734;2023-07-13T05:26:57;2.37;;;1.83;;
75191;SDS011;63771;52.580;9.734;2023-07-13T05:29:22;3.53;;;2.28;;
75191;SDS011;63771;52.580;9.734;2023-07-13T05:31:48;5.30;;;2.75;;
75191;SDS011;63771;52.580;9.734;2023-07-13T05:34:14;2.30;;;2.03;;
75191;SDS011;63771;52.580;9.734;2023-07-13T05:36:40;3.50;;;2.35;;
75191;SDS011;63771;52.580;9.734;2023-07-13T05:39:06;3.38;;;2.03;;
75191;SDS011;63771;52.580;9.734;2023-07-13T05:41:31;4.05;;;2.42;;
75191;SDS011;63771;52.580;9.734;2023-07-13T05:43:56;2.87;;;2.10;;
75191;SDS011;63771;52.580;9.734;2023-07-13T05:46:21;3.53;;;2.17;;
75191;SDS011;63771;52.580;9.734;2023-07-13T05:48:47;6.22;;;2.20;;
75191;SDS011;63771;52.580;9.734;2023-07-13T05:51:12;4.93;;;2.10;;
75191;SDS011;63771;52.580;9.734;2023-07-13T05:53:38;2.08;;;1.67;;
75191;SDS011;63771;52.580;9.734;2023-07-13T05:56:04;9.30;;;2.10;;
75191;SDS011;63771;52.580;9.734;2023-07-13T05:58:29;5.35;;;2.20;;
75191;SDS011;63771;52.580;9.734;2023-07-13T06:00:58;5.38;;;2.38;;
75191;SDS011;63771;52.580;9.734;2023-07-13T06:03:28;3.05;;;2.13;;
75191;SDS011;63771;52.580;9.734;2023-07-13T06:05:54;3.13;;;1.88;;
75191;SDS011;63771;52.580;9.734;2023-07-13T06:08:19;7.40;;;2.00;;
75191;SDS011;63771;52.580;9.734;2023-07-13T06:10:45;1.88;;;1.40;;
75191;SDS011;63771;52.580;9.734;2023-07-13T06:13:10;3.33;;;1.90;;
75191;SDS011;63771;52.580;9.734;2023-07-13T06:15:35;6.78;;;2.03;;
75191;SDS011;63771;52.580;9.734;2023-07-13T06:18:01;5.10;;;1.73;;
75191;SDS011;63771;52.580;9.734;2023-07-13T06:20:26;3.57;;;2.00;;
75191;SDS011;63771;52.580;9.734;2023-07-13T06:22:51;5.65;;;1.77;;
75191;SDS011;63771;52.580;9.734;2023-07-13T06:25:17;3.03;;;1.73;;
75191;SDS011;63771;52.580;9.734;2023-07-13T06:27:42;5.67;;;1.83;;
75191;SDS011;63771;52.580;9.734;2023-07-13T06:30:08;3.38;;;2.00;;
75191;SDS011;63771;52.580;9.734;2023-07-13T06:32:34;4.60;;;2.10;;
75191;SDS011;63771;52.580;9.734;2023-07-13T06:34:59;6.27;;;1.90;;
75191;SDS011;63771;52.580;9.734;2023-07-13T06:37:24;3.33;;;1.40;;
75191;SDS011;63771;52.580;9.734;2023-07-13T06:39:50;2.73;;;1.63;;
75191;SDS011;63771;52.580;9.734;2023-07-13T06:42:15;5.83;;;2.40;;
75191;SDS011;63771;52.580;9.734;2023-07-13T06:44:41;8.45;;;2.00;;
75191;SDS011;63771;52.580;9.734;2023-07-13T06:47:07;4.03;;;1.85;;
75191;SDS011;63771;52.580;9.734;2023-07-13T06:49:32;6.75;;;2.10;;
75191;SDS011;63771;52.580;9.734;2023-07-13T06:51:57;6.03;;;1.70;;
75191;SDS011;63771;52.580;9.734;2023-07-13T06:54:23;3.63;;;2.17;;
75191;SDS011;63771;52.580;9.734;2023-07-13T06:56:48;5.47;;;2.00;;
75191;SDS011;63771;52.580;9.734;2023-07-13T06:59:13;10.63;;;2.33;;
75191;SDS011;63771;52.580;9.734;2023-07-13T07:01:39;3.40;;;1.60;;
75191;SDS011;63771;52.580;9.734;2023-07-13T07:04:04;7.53;;;2.00;;
75191;SDS011;63771;52.580;9.734;2023-07-13T07:06:29;4.70;;;2.10;;
75191;SDS011;63771;52.580;9.734;2023-07-13T07:08:55;4.53;;;1.45;;
75191;SDS011;63771;52.580;9.734;2023-07-13T07:11:24;2.72;;;1.45;;
75191;SDS011;63771;52.580;9.734;2023-07-13T07:13:51;9.32;;;1.67;;
75191;SDS011;63771;52.580;9.734;2023-07-13T07:16:17;4.72;;;2.38;;
75191;SDS011;63771;52.580;9.734;2023-07-13T07:18:44;6.80;;;1.92;;
75191;SDS011;63771;52.580;9.734;2023-07-13T07:21:10;2.65;;;1.52;;
75191;SDS011;63771;52.580;9.734;2023-07-13T07:23:35;1.77;;;1.30;;
75191;SDS011;63771;52.580;9.734;2023-07-13T07:26:01;4.15;;;2.00;;
75191;SDS011;63771;52.580;9.734;2023-07-13T07:28:27;4.82;;;1.63;;
75191;SDS011;63771;52.580;9.734;2023-07-13T07:30:54;3.78;;;2.03;;
75191;SDS011;63771;52.580;9.734;2023-07-13T07:35:46;5.37;;;1.77;;
75191;SDS011;63771;52.580;9.734;2023-07-13T07:38:11;4.45;;;1.73;;
75191;SDS011;63771;52.580;9.734;2023-07-13T07:40:37;4.60;;;1.90;;
75191;SDS011;63771;52.580;9.734;2023-07-13T07:43:05;3.70;;;1.88;;
75191;SDS011;63771;52.580;9.734;2023-07-13T07:45:30;5.10;;;2.20;;
75191;SDS011;63771;52.580;9.734;2023-07-13T07:47:56;9.50;;;1.98;;
75191;SDS011;63771;52.580;9.734;2023-07-13T07:50:24;6.18;;;2.10;;
75191;SDS011;63771;52.580;9.734;2023-07-13T07:52:50;4.35;;;2.10;;
75191;SDS011;63771;52.580;9.734;2023-07-13T07:55:16;3.10;;;1.77;;
75191;SDS011;63771;52.580;9.734;2023-07-13T07:57:41;5.72;;;1.90;;
75191;SDS011;63771;52.580;9.734;2023-07-13T08:00:07;6.20;;;2.17;;
75191;SDS011;63771;52.580;9.734;2023-07-13T08:02:33;4.55;;;1.85;;
75191;SDS011;63771;52.580;9.734;2023-07-13T08:04:58;4.53;;;2.10;;
75191;SDS011;63771;52.580;9.734;2023-07-13T08:07:23;3.70;;;1.93;;
75191;SDS011;63771;52.580;9.734;2023-07-13T08:09:51;4.68;;;1.83;;
75191;SDS011;63771;52.580;9.734;2023-07-13T08:12:18;4.97;;;2.20;;
75191;SDS011;63771;52.580;9.734;2023-07-13T08:14:43;4.70;;;1.70;;
75191;SDS011;63771;52.580;9.734;2023-07-13T08:17:09;10.25;;;2.50;;
75191;SDS011;63771;52.580;9.734;2023-07-13T08:19:36;3.47;;;1.90;;
75191;SDS011;63771;52.580;9.734;2023-07-13T08:22:02;8.93;;;2.38;;
75191;SDS011;63771;52.580;9.734;2023-07-13T08:24:27;5.00;;;1.80;;
75191;SDS011;63771;52.580;9.734;2023-07-13T08:26:52;7.83;;;2.67;;
75191;SDS011;63771;52.580;9.734;2023-07-13T08:29:18;2.43;;;1.70;;
75191;SDS011;63771;52.580;9.734;2023-07-13T08:31:43;5.75;;;2.63;;
75191;SDS011;63771;52.580;9.734;2023-07-13T08:34:08;3.43;;;1.80;;
75191;SDS011;63771;52.580;9.734;2023-07-13T08:36:34;4.15;;;2.40;;
75191;SDS011;63771;52.580;9.734;2023-07-13T08:38:59;2.60;;;1.67;;
75191;SDS011;63771;52.580;9.734;2023-07-13T08:41:24;3.37;;;1.90;;
75191;SDS011;63771;52.580;9.734;2023-07-13T08:43:55;5.90;;;2.60;;
75191;SDS011;63771;52.580;9.734;2023-07-13T08:46:28;4.32;;;2.05;;
75191;SDS011;63771;52.580;9.734;2023-07-13T08:49:02;3.13;;;1.98;;
75191;SDS011;63771;52.580;9.734;2023-07-13T08:54:00;11.43;;;2.30;;
75191;SDS011;63771;52.580;9.734;2023-07-13T08:56:29;2.95;;;1.90;;
75191;SDS011;63771;52.580;9.734;2023-07-13T08:58:56;4.90;;;2.05;;
75191;SDS011;63771;52.580;9.734;2023-07-13T09:01:27;4.28;;;1.80;;
75191;SDS011;63771;52.580;9.734;2023-07-13T09:04:02;1.92;;;1.63;;
75191;SDS011;63771;52.580;9.734;2023-07-13T09:06:47;3.75;;;2.22;;
75191;SDS011;63771;52.580;9.734;2023-07-13T09:15:01;6.25;;;2.53;;
75191;SDS011;63771;52.580;9.734;2023-07-13T09:17:50;3.72;;;2.40;;
75191;SDS011;63771;52.580;9.734;2023-07-13T09:22:50;4.78;;;1.70;;
75191;SDS011;63771;52.580;9.734;2023-07-13T09:25:34;2.85;;;1.65;;
75191;SDS011;63771;52.580;9.734;2023-07-13T09:28:11;4.80;;;2.13;;
75191;SDS011;63771;52.580;9.734;2023-07-13T09:33:28;6.75;;;2.65;;
75191;SDS011;63771;52.580;9.734;2023-07-13T09:35:55;4.50;;;2.35;;
75191;SDS011;63771;52.580;9.734;2023-07-13T09:46:35;3.75;;;1.75;;
75191;SDS011;63771;52.580;9.734;2023-07-13T09:49:01;3.65;;;2.25;;
75191;SDS011;63771;52.580;9.734;2023-07-13T09:51:26;6.28;;;2.13;;
75191;SDS011;63771;52.580;9.734;2023-07-13T09:53:52;5.57;;;1.60;;
75191;SDS011;63771;52.580;9.734;2023-07-13T09:56:27;4.88;;;1.67;;
75191;SDS011;63771;52.580;9.734;2023-07-13T09:58:54;3.70;;;1.85;;
75191;SDS011;63771;52.580;9.734;2023-07-13T10:01:33;2.65;;;1.50;;
75191;SDS011;63771;52.580;9.734;2023-07-13T10:04:10;2.70;;;1.55;;
75191;SDS011;63771;52.580;9.734;2023-07-13T10:06:38;2.35;;;1.85;;
75191;SDS011;63771;52.580;9.734;2023-07-13T10:09:06;4.32;;;1.92;;
75191;SDS011;63771;52.580;9.734;2023-07-13T10:11:34;3.22;;;1.70;;
75191;SDS011;63771;52.580;9.734;2023-07-13T10:14:02;2.45;;;1.67;;
75191;SDS011;63771;52.580;9.734;2023-07-13T10:16:35;5.13;;;1.63;;
75191;SDS011;63771;52.580;9.734;2023-07-13T10:19:03;2.03;;;1.48;;
75191;SDS011;63771;52.580;9.734;2023-07-13T10:21:36;5.97;;;1.55;;
75191;SDS011;63771;52.580;9.734;2023-07-13T10:24:13;2.50;;;1.50;;
75191;SDS011;63771;52.580;9.734;2023-07-13T10:26:56;2.80;;;1.45;;
75191;SDS011;63771;52.580;9.734;2023-07-13T10:29:29;1.92;;;1.73;;
75191;SDS011;63771;52.580;9.734;2023-07-13T10:32:00;1.20;;;1.20;;
75191;SDS011;63771;52.580;9.734;2023-07-13T10:34:26;3.30;;;1.70;;
75191;SDS011;63771;52.580;9.734;2023-07-13T10:36:52;2.00;;;1.67;;
75191;SDS011;63771;52.580;9.734;2023-07-13T10:39:19;3.10;;;1.67;;
75191;SDS011;63771;52.580;9.734;2023-07-13T10:41:49;4.78;;;1.90;;
75191;SDS011;63771;52.580;9.734;2023-07-13T10:44:20;2.17;;;1.60;;
75191;SDS011;63771;52.580;9.734;2023-07-13T10:46:51;2.55;;;1.40;;
75191;SDS011;63771;52.580;9.734;2023-07-13T10:49:19;4.53;;;1.50;;
75191;SDS011;63771;52.580;9.734;2023-07-13T10:51:45;4.88;;;2.33;;
75191;SDS011;63771;52.580;9.734;2023-07-13T10:56:40;1.75;;;1.63;;
75191;SDS011;63771;52.580;9.734;2023-07-13T11:01:49;1.58;;;1.48;;
75191;SDS011;63771;52.580;9.734;2023-07-13T11:04:31;1.70;;;1.40;;
75191;SDS011;63771;52.580;9.734;2023-07-13T11:07:26;3.40;;;1.48;;
75191;SDS011;63771;52.580;9.734;2023-07-13T11:09:53;2.92;;;1.55;;
75191;SDS011;63771;52.580;9.734;2023-07-13T11:16:01;1.50;;;1.30;;
75191;SDS011;63771;52.580;9.734;2023-07-13T11:18:22;2.70;;;1.70;;
75191;SDS011;63771;52.580;9.734;2023-07-13T11:20:50;1.70;;;1.60;;
75191;SDS011;63771;52.580;9.734;2023-07-13T11:25:41;7.35;;;1.50;;
75191;SDS011;63771;52.580;9.734;2023-07-13T11:33:16;2.10;;;1.45;;
75191;SDS011;63771;52.580;9.734;2023-07-13T11:36:15;3.97;;;1.75;;
75191;SDS011;63771;52.580;9.734;2023-07-13T11:38:43;3.05;;;1.52;;
75191;SDS011;63771;52.580;9.734;2023-07-13T11:43:48;1.70;;;1.50;;
75191;SDS011;63771;52.580;9.734;2023-07-13T11:48:45;2.85;;;1.60;;
75191;SDS011;63771;52.580;9.734;2023-07-13T11:51:15;2.80;;;1.70;;
75191;SDS011;63771;52.580;9.734;2023-07-13T11:53:46;2.35;;;1.98;;
75191;SDS011;63771;52.580;9.734;2023-07-13T11:56:13;4.88;;;1.95;;
75191;SDS011;63771;52.580;9.734;2023-07-13T11:58:39;5.15;;;2.85;;
75191;SDS011;63771;52.580;9.734;2023-07-13T12:01:06;3.15;;;1.90;;
75191;SDS011;63771;52.580;9.734;2023-07-13T12:03:41;6.57;;;2.20;;
75191;SDS011;63771;52.580;9.734;2023-07-13T12:06:15;1.45;;;1.30;;
75191;SDS011;63771;52.580;9.734;2023-07-13T12:09:00;4.03;;;1.73;;
75191;SDS011;63771;52.580;9.734;2023-07-13T12:11:28;3.65;;;1.70;;
75191;SDS011;63771;52.580;9.734;2023-07-13T12:13:55;4.05;;;2.05;;
75191;SDS011;63771;52.580;9.734;2023-07-13T12:16:28;1.40;;;1.30;;
75191;SDS011;63771;52.580;9.734;2023-07-13T12:18:55;4.00;;;2.33;;
75191;SDS011;63771;52.580;9.734;2023-07-13T12:21:24;2.00;;;1.50;;
75191;SDS011;63771;52.580;9.734;2023-07-13T12:23:54;1.65;;;1.55;;
75191;SDS011;63771;52.580;9.734;2023-07-13T12:26:20;6.53;;;1.73;;
75191;SDS011;63771;52.580;9.734;2023-07-13T12:28:47;2.00;;;1.80;;
75191;SDS011;63771;52.580;9.734;2023-07-13T12:33:56;2.38;;;1.80;;
75191;SDS011;63771;52.580;9.734;2023-07-13T12:36:23;2.53;;;1.73;;
75191;SDS011;63771;52.580;9.734;2023-07-13T12:38:49;1.75;;;1.65;;
75191;SDS011;63771;52.580;9.734;2023-07-13T12:41:14;1.65;;;1.50;;
75191;SDS011;63771;52.580;9.734;2023-07-13T12:43:40;1.60;;;1.50;;
75191;SDS011;63771;52.580;9.734;2023-07-13T12:46:15;1.85;;;1.67;;
75191;SDS011;63771;52.580;9.734;2023-07-13T12:48:52;1.98;;;1.80;;
75191;SDS011;63771;52.580;9.734;2023-07-13T12:51:22;1.50;;;1.40;;
75191;SDS011;63771;52.580;9.734;2023-07-13T12:53:51;2.78;;;1.90;;
75191;SDS011;63771;52.580;9.734;2023-07-13T12:56:23;1.85;;;1.75;;
75191;SDS011;63771;52.580;9.734;2023-07-13T12:58:56;5.40;;;1.92;;
75191;SDS011;63771;52.580;9.734;2023-07-13T13:01:27;1.55;;;1.45;;
75191;SDS011;63771;52.580;9.734;2023-07-13T13:03:53;6.68;;;2.85;;
75191;SDS011;63771;52.580;9.734;2023-07-13T13:06:27;10.68;;;2.80;;
75191;SDS011;63771;52.580;9.734;2023-07-13T13:08:55;4.70;;;2.42;;
75191;SDS011;63771;52.580;9.734;2023-07-13T13:11:23;5.60;;;2.08;;
75191;SDS011;63771;52.580;9.734;2023-07-13T13:18:51;4.63;;;2.42;;
75191;SDS011;63771;52.580;9.734;2023-07-13T13:21:18;5.15;;;3.13;;
75191;SDS011;63771;52.580;9.734;2023-07-13T13:23:45;4.55;;;2.03;;
75191;SDS011;63771;52.580;9.734;2023-07-13T13:26:12;2.47;;;2.17;;
75191;SDS011;63771;52.580;9.734;2023-07-13T13:28:43;4.90;;;2.25;;
75191;SDS011;63771;52.580;9.734;2023-07-13T13:31:09;3.58;;;2.63;;
75191;SDS011;63771;52.580;9.734;2023-07-13T13:33:37;2.88;;;2.38;;
75191;SDS011;63771;52.580;9.734;2023-07-13T13:36:12;1.98;;;1.70;;
75191;SDS011;63771;52.580;9.734;2023-07-13T13:38:40;3.97;;;1.98;;
75191;SDS011;63771;52.580;9.734;2023-07-13T13:41:07;2.45;;;2.25;;
75191;SDS011;63771;52.580;9.734;2023-07-13T13:43:35;3.97;;;2.35;;
75191;SDS011;63771;52.580;9.734;2023-07-13T13:46:00;2.75;;;2.35;;
75191;SDS011;63771;52.580;9.734;2023-07-13T13:48:33;2.30;;;2.10;;
75191;SDS011;63771;52.580;9.734;2023-07-13T13:50:59;2.53;;;2.35;;
75191;SDS011;63771;52.580;9.734;2023-07-13T13:53:26;2.28;;;2.17;;
75191;SDS011;63771;52.580;9.734;2023-07-13T13:55:52;3.80;;;1.80;;
75191;SDS011;63771;52.580;9.734;2023-07-13T13:58:17;2.17;;;1.92;;
75191;SDS011;63771;52.580;9.734;2023-07-13T14:00:43;2.40;;;2.20;;
75191;SDS011;63771;52.580;9.734;2023-07-13T14:03:15;1.92;;;1.83;;
75191;SDS011;63771;52.580;9.734;2023-07-13T14:05:43;2.03;;;1.92;;
75191;SDS011;63771;52.580;9.734;2023-07-13T14:08:12;1.50;;;1.40;;
75191;SDS011;63771;52.580;9.734;2023-07-13T14:10:39;2.25;;;2.15;;
75191;SDS011;63771;52.580;9.734;2023-07-13T14:13:05;3.10;;;1.50;;
75191;SDS011;63771;52.580;9.734;2023-07-13T14:15:39;2.00;;;1.77;;
75191;SDS011;63771;52.580;9.734;2023-07-13T14:18:07;2.92;;;1.67;;
75191;SDS011;63771;52.580;9.734;2023-07-13T14:20:33;1.90;;;1.50;;
75191;SDS011;63771;52.580;9.734;2023-07-13T14:22:59;1.90;;;1.80;;
75191;SDS011;63771;52.580;9.734;2023-07-13T14:25:25;1.63;;;1.52;;
75191;SDS011;63771;52.580;9.734;2023-07-13T14:27:52;1.70;;;1.60;;
75191;SDS011;63771;52.580;9.734;2023-07-13T14:30:24;2.22;;;1.33;;
75191;SDS011;63771;52.580;9.734;2023-07-13T14:32:50;1.33;;;1.20;;
75191;SDS011;63771;52.580;9.734;2023-07-13T14:35:17;1.55;;;1.42;;
75191;SDS011;63771;52.580;9.734;2023-07-13T14:37:45;3.35;;;2.05;;
75191;SDS011;63771;52.580;9.734;2023-07-13T14:42:38;2.00;;;1.60;;
75191;SDS011;63771;52.580;9.734;2023-07-13T14:45:04;3.47;;;1.67;;
75191;SDS011;63771;52.580;9.734;2023-07-13T14:47:29;4.38;;;1.92;;
75191;SDS011;63771;52.580;9.734;2023-07-13T14:49:55;2.17;;;1.80;;
75191;SDS011;63771;52.580;9.734;2023-07-13T14:52:21;2.80;;;1.88;;
75191;SDS011;63771;52.580;9.734;2023-07-13T14:54:48;1.95;;;1.70;;
75191;SDS011;63771;52.580;9.734;2023-07-13T14:57:17;2.05;;;1.88;;
75191;SDS011;63771;52.580;9.734;2023-07-13T14:59:44;2.33;;;1.80;;
75191;SDS011;63771;52.580;9.734;2023-07-13T15:02:14;1.80;;;1.70;;
75191;SDS011;63771;52.580;9.734;2023-07-13T15:04:50;3.03;;;2.28;;
75191;SDS011;63771;52.580;9.734;2023-07-13T15:07:15;1.57;;;1.47;;
75191;SDS011;63771;52.580;9.734;2023-07-13T15:09:43;1.70;;;1.60;;
75191;SDS011;63771;52.580;9.734;2023-07-13T15:12:08;2.72;;;2.10;;
75191;SDS011;63771;52.580;9.734;2023-07-13T15:14:34;2.78;;;2.25;;
75191;SDS011;63771;52.580;9.734;2023-07-13T15:16:59;1.75;;;1.65;;
75191;SDS011;63771;52.580;9.734;2023-07-13T15:19:25;2.28;;;2.05;;
75191;SDS011;63771;52.580;9.734;2023-07-13T15:21:51;2.47;;;2.22;;
75191;SDS011;63771;52.580;9.734;2023-07-13T15:24:19;2.00;;;1.88;;
75191;SDS011;63771;52.580;9.734;2023-07-13T15:26:46;5.18;;;1.90;;
75191;SDS011;63771;52.580;9.734;2023-07-13T15:29:13;2.10;;;1.90;;
75191;SDS011;63771;52.580;9.734;2023-07-13T15:31:40;2.35;;;2.20;;
75191;SDS011;63771;52.580;9.734;2023-07-13T15:34:15;2.70;;;2.22;;
75191;SDS011;63771;52.580;9.734;2023-07-13T15:36:43;2.30;;;2.20;;
75191;SDS011;63771;52.580;9.734;2023-07-13T15:39:10;2.28;;;2.08;;
75191;SDS011;63771;52.580;9.734;2023-07-13T15:41:40;2.15;;;2.05;;
75191;SDS011;63771;52.580;9.734;2023-07-13T15:44:18;2.25;;;2.15;;
75191;SDS011;63771;52.580;9.734;2023-07-13T15:46:53;2.38;;;2.28;;
75191;SDS011;63771;52.580;9.734;2023-07-13T15:49:19;2.60;;;1.67;;
75191;SDS011;63771;52.580;9.734;2023-07-13T15:51:45;1.85;;;1.75;;